sensor_id;sensor_type;location;lat;lon;timestamp;P1;durP1;ratioP1;P2;durP2;ratioP2
13683;SDS011;6914;53.552;9.908;2022-08-16T00:00:11;18.30;;;16.20;;
13683;SDS011;6914;53.552;9.908;2022-08-16T00:02:40;18.37;;;16.67;;
13683;SDS011;6914;53.552;9.908;2022-08-16T00:05:08;17.93;;;16.17;;
13683;SDS011;6914;53.552;9.908;2022-08-16T00:07:36;27.93;;;16.30;;
13683;SDS011;6914;53.552;9.908;2022-08-16T00:10:06;19.23;;;17.30;;
13683;SDS011;6914;53.552;9.908;2022-08-16T00:15:56;18.47;;;16.63;;
13683;SDS011;6914;53.552;9.908;2022-08-16T00:18:23;26.00;;;18.13;;
13683;SDS011;6914;53.552;9.908;2022-08-16T00:20:50;20.17;;;17.83;;
13683;SDS011;6914;53.552;9.908;2022-08-16T00:23:17;21.13;;;18.90;;
13683;SDS011;6914;53.552;9.908;2022-08-16T00:25:46;22.57;;;20.20;;
13683;SDS011;6914;53.552;9.908;2022-08-16T00:28:14;23.67;;;18.40;;
13683;SDS011;6914;53.552;9.908;2022-08-16T00:30:41;28.37;;;19.07;;
13683;SDS011;6914;53.552;9.908;2022-08-16T00:33:08;27.40;;;21.37;;
13683;SDS011;6914;53.552;9.908;2022-08-16T00:35:36;22.60;;;20.30;;
13683;SDS011;6914;53.552;9.908;2022-08-16T00:38:04;24.43;;;21.83;;
13683;SDS011;6914;53.552;9.908;2022-08-16T00:40:32;25.40;;;22.40;;
13683;SDS011;6914;53.552;9.908;2022-08-16T00:43:04;31.13;;;22.77;;
13683;SDS011;6914;53.552;9.908;2022-08-16T00:45:37;24.07;;;21.60;;
13683;SDS011;6914;53.552;9.908;2022-08-16T00:48:07;24.93;;;22.10;;
13683;SDS011;6914;53.552;9.908;2022-08-16T00:50:37;24.43;;;21.90;;
13683;SDS011;6914;53.552;9.908;2022-08-16T00:53:06;26.67;;;21.87;;
13683;SDS011;6914;53.552;9.908;2022-08-16T00:55:34;29.37;;;23.37;;
13683;SDS011;6914;53.552;9.908;2022-08-16T00:58:06;25.73;;;23.13;;
13683;SDS011;6914;53.552;9.908;2022-08-16T01:00:35;26.43;;;22.40;;
13683;SDS011;6914;53.552;9.908;2022-08-16T01:03:05;25.30;;;22.57;;
13683;SDS011;6914;53.552;9.908;2022-08-16T01:05:34;23.93;;;21.63;;
13683;SDS011;6914;53.552;9.908;2022-08-16T01:08:03;26.63;;;23.33;;
13683;SDS011;6914;53.552;9.908;2022-08-16T01:10:31;29.27;;;24.27;;
13683;SDS011;6914;53.552;9.908;2022-08-16T01:13:01;25.57;;;22.87;;
13683;SDS011;6914;53.552;9.908;2022-08-16T01:15:32;26.40;;;22.07;;
13683;SDS011;6914;53.552;9.908;2022-08-16T01:18:00;28.57;;;22.63;;
13683;SDS011;6914;53.552;9.908;2022-08-16T01:20:30;32.00;;;23.13;;
13683;SDS011;6914;53.552;9.908;2022-08-16T01:22:59;26.00;;;23.30;;
13683;SDS011;6914;53.552;9.908;2022-08-16T01:25:34;26.70;;;21.90;;
13683;SDS011;6914;53.552;9.908;2022-08-16T01:28:06;25.53;;;22.97;;
13683;SDS011;6914;53.552;9.908;2022-08-16T01:30:38;25.77;;;23.10;;
13683;SDS011;6914;53.552;9.908;2022-08-16T01:33:07;26.50;;;23.70;;
13683;SDS011;6914;53.552;9.908;2022-08-16T01:35:35;26.77;;;24.07;;
13683;SDS011;6914;53.552;9.908;2022-08-16T01:38:16;28.07;;;25.03;;
13683;SDS011;6914;53.552;9.908;2022-08-16T01:40:49;28.40;;;23.93;;
13683;SDS011;6914;53.552;9.908;2022-08-16T01:43:18;33.20;;;24.23;;
13683;SDS011;6914;53.552;9.908;2022-08-16T01:45:46;28.63;;;24.40;;
13683;SDS011;6914;53.552;9.908;2022-08-16T01:48:13;29.00;;;24.73;;
13683;SDS011;6914;53.552;9.908;2022-08-16T01:50:40;28.87;;;24.10;;
13683;SDS011;6914;53.552;9.908;2022-08-16T01:53:09;28.90;;;24.60;;
13683;SDS011;6914;53.552;9.908;2022-08-16T01:55:37;30.37;;;24.80;;
13683;SDS011;6914;53.552;9.908;2022-08-16T01:58:06;26.23;;;23.63;;
13683;SDS011;6914;53.552;9.908;2022-08-16T02:00:34;33.10;;;22.90;;
13683;SDS011;6914;53.552;9.908;2022-08-16T02:03:01;26.10;;;23.37;;
13683;SDS011;6914;53.552;9.908;2022-08-16T02:05:29;28.57;;;22.77;;
13683;SDS011;6914;53.552;9.908;2022-08-16T02:07:57;23.80;;;21.40;;
13683;SDS011;6914;53.552;9.908;2022-08-16T02:10:24;36.67;;;26.40;;
13683;SDS011;6914;53.552;9.908;2022-08-16T02:12:51;27.07;;;24.30;;
13683;SDS011;6914;53.552;9.908;2022-08-16T02:15:21;30.43;;;26.17;;
13683;SDS011;6914;53.552;9.908;2022-08-16T02:17:50;31.77;;;23.77;;
13683;SDS011;6914;53.552;9.908;2022-08-16T02:20:17;27.67;;;24.43;;
13683;SDS011;6914;53.552;9.908;2022-08-16T02:22:45;28.97;;;24.40;;
13683;SDS011;6914;53.552;9.908;2022-08-16T02:25:13;28.80;;;23.70;;
13683;SDS011;6914;53.552;9.908;2022-08-16T02:27:41;27.77;;;24.83;;
13683;SDS011;6914;53.552;9.908;2022-08-16T02:30:11;29.50;;;23.63;;
13683;SDS011;6914;53.552;9.908;2022-08-16T02:32:40;27.47;;;24.63;;
13683;SDS011;6914;53.552;9.908;2022-08-16T02:35:08;28.97;;;25.97;;
13683;SDS011;6914;53.552;9.908;2022-08-16T02:37:35;26.93;;;24.23;;
13683;SDS011;6914;53.552;9.908;2022-08-16T02:40:03;33.47;;;27.50;;
13683;SDS011;6914;53.552;9.908;2022-08-16T02:42:32;28.70;;;25.10;;
13683;SDS011;6914;53.552;9.908;2022-08-16T02:44:59;32.77;;;24.60;;
13683;SDS011;6914;53.552;9.908;2022-08-16T02:47:26;28.10;;;25.30;;
13683;SDS011;6914;53.552;9.908;2022-08-16T02:49:54;30.40;;;25.73;;
13683;SDS011;6914;53.552;9.908;2022-08-16T02:52:21;30.70;;;27.07;;
13683;SDS011;6914;53.552;9.908;2022-08-16T02:54:49;32.30;;;27.80;;
13683;SDS011;6914;53.552;9.908;2022-08-16T02:57:15;28.87;;;25.87;;
13683;SDS011;6914;53.552;9.908;2022-08-16T02:59:43;33.20;;;27.17;;
13683;SDS011;6914;53.552;9.908;2022-08-16T03:02:10;30.43;;;27.27;;
13683;SDS011;6914;53.552;9.908;2022-08-16T03:04:37;35.07;;;28.23;;
13683;SDS011;6914;53.552;9.908;2022-08-16T03:07:06;35.47;;;27.53;;
13683;SDS011;6914;53.552;9.908;2022-08-16T03:09:33;32.43;;;26.63;;
13683;SDS011;6914;53.552;9.908;2022-08-16T03:12:01;32.27;;;27.70;;
13683;SDS011;6914;53.552;9.908;2022-08-16T03:14:29;34.27;;;28.00;;
13683;SDS011;6914;53.552;9.908;2022-08-16T03:16:57;37.13;;;28.57;;
13683;SDS011;6914;53.552;9.908;2022-08-16T03:19:24;33.10;;;27.90;;
13683;SDS011;6914;53.552;9.908;2022-08-16T03:21:52;34.63;;;28.00;;
13683;SDS011;6914;53.552;9.908;2022-08-16T03:24:21;38.73;;;29.93;;
13683;SDS011;6914;53.552;9.908;2022-08-16T03:26:48;31.87;;;28.43;;
13683;SDS011;6914;53.552;9.908;2022-08-16T03:29:16;34.70;;;29.27;;
13683;SDS011;6914;53.552;9.908;2022-08-16T03:31:43;32.67;;;29.00;;
13683;SDS011;6914;53.552;9.908;2022-08-16T03:34:10;42.17;;;30.23;;
13683;SDS011;6914;53.552;9.908;2022-08-16T03:36:37;36.77;;;30.20;;
13683;SDS011;6914;53.552;9.908;2022-08-16T03:39:04;35.17;;;29.47;;
13683;SDS011;6914;53.552;9.908;2022-08-16T03:41:33;33.20;;;28.97;;
13683;SDS011;6914;53.552;9.908;2022-08-16T03:44:00;41.53;;;29.83;;
13683;SDS011;6914;53.552;9.908;2022-08-16T03:46:27;37.03;;;28.30;;
13683;SDS011;6914;53.552;9.908;2022-08-16T03:48:55;36.60;;;32.27;;
13683;SDS011;6914;53.552;9.908;2022-08-16T03:51:22;39.10;;;31.57;;
13683;SDS011;6914;53.552;9.908;2022-08-16T03:53:49;34.53;;;29.97;;
13683;SDS011;6914;53.552;9.908;2022-08-16T03:56:16;39.13;;;30.57;;
13683;SDS011;6914;53.552;9.908;2022-08-16T03:58:44;40.00;;;31.30;;
13683;SDS011;6914;53.552;9.908;2022-08-16T04:01:11;36.90;;;29.13;;
13683;SDS011;6914;53.552;9.908;2022-08-16T04:03:38;36.87;;;29.50;;
13683;SDS011;6914;53.552;9.908;2022-08-16T04:06:05;33.03;;;28.70;;
13683;SDS011;6914;53.552;9.908;2022-08-16T04:08:33;35.53;;;30.13;;
13683;SDS011;6914;53.552;9.908;2022-08-16T04:11:00;35.13;;;30.87;;
13683;SDS011;6914;53.552;9.908;2022-08-16T04:13:27;35.40;;;31.53;;
13683;SDS011;6914;53.552;9.908;2022-08-16T04:15:56;41.27;;;30.90;;
13683;SDS011;6914;53.552;9.908;2022-08-16T04:18:25;35.27;;;29.57;;
13683;SDS011;6914;53.552;9.908;2022-08-16T04:20:52;41.33;;;31.60;;
13683;SDS011;6914;53.552;9.908;2022-08-16T04:23:19;36.20;;;30.90;;
13683;SDS011;6914;53.552;9.908;2022-08-16T04:25:47;39.50;;;32.60;;
13683;SDS011;6914;53.552;9.908;2022-08-16T04:31:38;39.13;;;32.33;;
13683;SDS011;6914;53.552;9.908;2022-08-16T04:37:27;41.80;;;34.10;;
13683;SDS011;6914;53.552;9.908;2022-08-16T04:39:54;45.50;;;33.77;;
13683;SDS011;6914;53.552;9.908;2022-08-16T04:42:21;46.50;;;32.33;;
13683;SDS011;6914;53.552;9.908;2022-08-16T04:44:48;40.63;;;33.87;;
13683;SDS011;6914;53.552;9.908;2022-08-16T04:47:16;50.00;;;36.30;;
13683;SDS011;6914;53.552;9.908;2022-08-16T04:49:43;41.10;;;35.77;;
13683;SDS011;6914;53.552;9.908;2022-08-16T04:52:10;42.00;;;36.30;;
13683;SDS011;6914;53.552;9.908;2022-08-16T04:54:38;43.80;;;35.13;;
13683;SDS011;6914;53.552;9.908;2022-08-16T04:57:05;45.20;;;36.37;;
13683;SDS011;6914;53.552;9.908;2022-08-16T04:59:32;41.87;;;37.30;;
13683;SDS011;6914;53.552;9.908;2022-08-16T05:01:59;47.90;;;38.27;;
13683;SDS011;6914;53.552;9.908;2022-08-16T05:04:27;47.90;;;38.80;;
13683;SDS011;6914;53.552;9.908;2022-08-16T05:06:55;49.90;;;37.40;;
13683;SDS011;6914;53.552;9.908;2022-08-16T05:09:22;45.10;;;36.17;;
13683;SDS011;6914;53.552;9.908;2022-08-16T05:11:49;49.10;;;36.80;;
13683;SDS011;6914;53.552;9.908;2022-08-16T05:14:19;45.63;;;35.43;;
13683;SDS011;6914;53.552;9.908;2022-08-16T05:16:46;43.67;;;36.80;;
13683;SDS011;6914;53.552;9.908;2022-08-16T05:19:12;44.33;;;36.43;;
13683;SDS011;6914;53.552;9.908;2022-08-16T05:21:41;46.87;;;38.00;;
13683;SDS011;6914;53.552;9.908;2022-08-16T05:24:08;48.10;;;37.33;;
13683;SDS011;6914;53.552;9.908;2022-08-16T05:26:35;47.97;;;36.60;;
13683;SDS011;6914;53.552;9.908;2022-08-16T05:29:03;40.30;;;33.40;;
13683;SDS011;6914;53.552;9.908;2022-08-16T05:31:31;43.57;;;34.73;;
13683;SDS011;6914;53.552;9.908;2022-08-16T05:33:58;43.63;;;35.60;;
13683;SDS011;6914;53.552;9.908;2022-08-16T05:36:27;41.20;;;35.30;;
13683;SDS011;6914;53.552;9.908;2022-08-16T05:38:55;42.53;;;35.07;;
13683;SDS011;6914;53.552;9.908;2022-08-16T05:41:22;47.93;;;35.67;;
13683;SDS011;6914;53.552;9.908;2022-08-16T05:43:49;60.03;;;36.60;;
13683;SDS011;6914;53.552;9.908;2022-08-16T05:46:16;47.57;;;34.77;;
13683;SDS011;6914;53.552;9.908;2022-08-16T05:48:44;43.00;;;32.60;;
13683;SDS011;6914;53.552;9.908;2022-08-16T05:51:11;57.17;;;34.77;;
13683;SDS011;6914;53.552;9.908;2022-08-16T05:53:38;39.43;;;33.10;;
13683;SDS011;6914;53.552;9.908;2022-08-16T05:56:06;43.60;;;32.23;;
13683;SDS011;6914;53.552;9.908;2022-08-16T05:58:33;43.53;;;34.33;;
13683;SDS011;6914;53.552;9.908;2022-08-16T06:01:00;45.13;;;32.60;;
13683;SDS011;6914;53.552;9.908;2022-08-16T06:03:28;38.87;;;31.90;;
13683;SDS011;6914;53.552;9.908;2022-08-16T06:05:56;39.30;;;31.53;;
13683;SDS011;6914;53.552;9.908;2022-08-16T06:08:24;42.87;;;32.30;;
13683;SDS011;6914;53.552;9.908;2022-08-16T06:10:51;37.37;;;32.70;;
13683;SDS011;6914;53.552;9.908;2022-08-16T06:13:20;36.23;;;30.43;;
13683;SDS011;6914;53.552;9.908;2022-08-16T06:15:46;42.53;;;30.93;;
13683;SDS011;6914;53.552;9.908;2022-08-16T06:18:16;37.53;;;29.70;;
13683;SDS011;6914;53.552;9.908;2022-08-16T06:20:43;38.30;;;29.97;;
13683;SDS011;6914;53.552;9.908;2022-08-16T06:23:10;34.47;;;29.13;;
13683;SDS011;6914;53.552;9.908;2022-08-16T06:25:37;40.20;;;28.40;;
13683;SDS011;6914;53.552;9.908;2022-08-16T06:28:05;32.90;;;28.50;;
13683;SDS011;6914;53.552;9.908;2022-08-16T06:30:36;36.70;;;27.97;;
13683;SDS011;6914;53.552;9.908;2022-08-16T06:33:04;40.90;;;29.33;;
13683;SDS011;6914;53.552;9.908;2022-08-16T06:35:31;39.80;;;29.47;;
13683;SDS011;6914;53.552;9.908;2022-08-16T06:37:58;36.43;;;29.50;;
13683;SDS011;6914;53.552;9.908;2022-08-16T06:40:25;31.77;;;28.30;;
13683;SDS011;6914;53.552;9.908;2022-08-16T06:42:51;32.90;;;27.10;;
13683;SDS011;6914;53.552;9.908;2022-08-16T06:45:20;32.43;;;26.33;;
13683;SDS011;6914;53.552;9.908;2022-08-16T06:47:49;37.10;;;26.93;;
13683;SDS011;6914;53.552;9.908;2022-08-16T06:50:16;36.10;;;26.93;;
13683;SDS011;6914;53.552;9.908;2022-08-16T06:52:44;32.70;;;26.23;;
13683;SDS011;6914;53.552;9.908;2022-08-16T06:55:11;29.40;;;22.80;;
13683;SDS011;6914;53.552;9.908;2022-08-16T06:57:40;31.87;;;27.00;;
13683;SDS011;6914;53.552;9.908;2022-08-16T07:00:08;29.37;;;25.60;;
13683;SDS011;6914;53.552;9.908;2022-08-16T07:02:38;32.90;;;23.57;;
13683;SDS011;6914;53.552;9.908;2022-08-16T07:05:07;28.97;;;24.63;;
13683;SDS011;6914;53.552;9.908;2022-08-16T07:07:36;35.40;;;22.97;;
13683;SDS011;6914;53.552;9.908;2022-08-16T07:10:04;24.70;;;21.00;;
13683;SDS011;6914;53.552;9.908;2022-08-16T07:12:34;29.03;;;20.37;;
13683;SDS011;6914;53.552;9.908;2022-08-16T07:15:01;28.07;;;21.50;;
13683;SDS011;6914;53.552;9.908;2022-08-16T07:17:29;22.30;;;19.90;;
13683;SDS011;6914;53.552;9.908;2022-08-16T07:19:57;26.97;;;20.27;;
13683;SDS011;6914;53.552;9.908;2022-08-16T07:22:26;21.77;;;19.57;;
13683;SDS011;6914;53.552;9.908;2022-08-16T07:24:53;30.67;;;23.33;;
13683;SDS011;6914;53.552;9.908;2022-08-16T07:27:20;24.43;;;21.07;;
13683;SDS011;6914;53.552;9.908;2022-08-16T07:29:47;29.30;;;21.27;;
13683;SDS011;6914;53.552;9.908;2022-08-16T07:32:14;24.23;;;19.47;;
13683;SDS011;6914;53.552;9.908;2022-08-16T07:34:43;28.60;;;19.60;;
13683;SDS011;6914;53.552;9.908;2022-08-16T07:37:10;25.67;;;21.10;;
13683;SDS011;6914;53.552;9.908;2022-08-16T07:39:38;24.33;;;20.77;;
13683;SDS011;6914;53.552;9.908;2022-08-16T07:42:05;30.70;;;22.87;;
13683;SDS011;6914;53.552;9.908;2022-08-16T07:44:32;24.70;;;21.27;;
13683;SDS011;6914;53.552;9.908;2022-08-16T07:46:59;26.83;;;21.23;;
13683;SDS011;6914;53.552;9.908;2022-08-16T07:49:26;24.87;;;18.43;;
13683;SDS011;6914;53.552;9.908;2022-08-16T07:51:53;22.77;;;20.50;;
13683;SDS011;6914;53.552;9.908;2022-08-16T07:54:20;26.37;;;18.63;;
13683;SDS011;6914;53.552;9.908;2022-08-16T07:56:49;26.50;;;18.97;;
13683;SDS011;6914;53.552;9.908;2022-08-16T07:59:16;21.27;;;18.77;;
13683;SDS011;6914;53.552;9.908;2022-08-16T08:01:43;16.93;;;15.13;;
13683;SDS011;6914;53.552;9.908;2022-08-16T08:04:10;26.70;;;18.27;;
13683;SDS011;6914;53.552;9.908;2022-08-16T08:06:38;21.97;;;16.87;;
13683;SDS011;6914;53.552;9.908;2022-08-16T08:09:06;20.90;;;16.00;;
13683;SDS011;6914;53.552;9.908;2022-08-16T08:11:33;21.70;;;17.13;;
13683;SDS011;6914;53.552;9.908;2022-08-16T08:14:02;23.53;;;15.40;;
13683;SDS011;6914;53.552;9.908;2022-08-16T08:16:29;17.20;;;15.33;;
13683;SDS011;6914;53.552;9.908;2022-08-16T08:18:57;26.50;;;17.07;;
13683;SDS011;6914;53.552;9.908;2022-08-16T08:21:24;22.93;;;15.37;;
13683;SDS011;6914;53.552;9.908;2022-08-16T08:23:51;18.90;;;15.33;;
13683;SDS011;6914;53.552;9.908;2022-08-16T08:26:21;23.00;;;16.53;;
13683;SDS011;6914;53.552;9.908;2022-08-16T08:28:49;16.83;;;15.17;;
13683;SDS011;6914;53.552;9.908;2022-08-16T08:31:18;17.47;;;15.70;;
13683;SDS011;6914;53.552;9.908;2022-08-16T08:33:45;19.43;;;14.50;;
13683;SDS011;6914;53.552;9.908;2022-08-16T08:36:13;22.17;;;15.43;;
13683;SDS011;6914;53.552;9.908;2022-08-16T08:38:45;22.50;;;16.33;;
13683;SDS011;6914;53.552;9.908;2022-08-16T08:41:15;18.73;;;14.80;;
13683;SDS011;6914;53.552;9.908;2022-08-16T08:43:42;16.73;;;13.97;;
13683;SDS011;6914;53.552;9.908;2022-08-16T08:46:09;14.80;;;13.33;;
13683;SDS011;6914;53.552;9.908;2022-08-16T08:48:37;14.03;;;12.63;;
13683;SDS011;6914;53.552;9.908;2022-08-16T08:51:05;18.90;;;12.70;;
13683;SDS011;6914;53.552;9.908;2022-08-16T08:53:32;16.53;;;12.90;;
13683;SDS011;6914;53.552;9.908;2022-08-16T08:56:00;14.53;;;11.73;;
13683;SDS011;6914;53.552;9.908;2022-08-16T08:58:27;14.10;;;11.03;;
13683;SDS011;6914;53.552;9.908;2022-08-16T09:00:55;15.30;;;10.33;;
13683;SDS011;6914;53.552;9.908;2022-08-16T09:03:22;14.20;;;10.67;;
13683;SDS011;6914;53.552;9.908;2022-08-16T09:05:51;13.83;;;11.33;;
13683;SDS011;6914;53.552;9.908;2022-08-16T09:08:18;15.70;;;9.60;;
13683;SDS011;6914;53.552;9.908;2022-08-16T09:10:45;12.03;;;10.33;;
13683;SDS011;6914;53.552;9.908;2022-08-16T09:13:12;12.10;;;10.20;;
13683;SDS011;6914;53.552;9.908;2022-08-16T09:15:39;11.33;;;10.20;;
13683;SDS011;6914;53.552;9.908;2022-08-16T09:18:06;13.90;;;10.40;;
13683;SDS011;6914;53.552;9.908;2022-08-16T09:20:33;10.83;;;9.93;;
13683;SDS011;6914;53.552;9.908;2022-08-16T09:23:01;9.40;;;8.40;;
13683;SDS011;6914;53.552;9.908;2022-08-16T09:25:28;10.70;;;9.30;;
13683;SDS011;6914;53.552;9.908;2022-08-16T09:27:55;9.73;;;8.63;;
13683;SDS011;6914;53.552;9.908;2022-08-16T09:30:22;11.33;;;10.20;;
13683;SDS011;6914;53.552;9.908;2022-08-16T09:32:50;12.50;;;11.10;;
13683;SDS011;6914;53.552;9.908;2022-08-16T09:35:19;10.30;;;9.30;;
13683;SDS011;6914;53.552;9.908;2022-08-16T09:37:46;8.13;;;7.33;;
13683;SDS011;6914;53.552;9.908;2022-08-16T09:40:14;10.10;;;7.60;;
13683;SDS011;6914;53.552;9.908;2022-08-16T09:42:41;18.73;;;7.90;;
13683;SDS011;6914;53.552;9.908;2022-08-16T09:45:09;7.40;;;6.77;;
13683;SDS011;6914;53.552;9.908;2022-08-16T09:47:36;7.20;;;6.80;;
13683;SDS011;6914;53.552;9.908;2022-08-16T09:50:05;9.87;;;7.40;;
13683;SDS011;6914;53.552;9.908;2022-08-16T09:52:33;18.13;;;8.33;;
13683;SDS011;6914;53.552;9.908;2022-08-16T09:55:02;8.30;;;7.50;;
13683;SDS011;6914;53.552;9.908;2022-08-16T09:57:31;10.10;;;7.27;;
13683;SDS011;6914;53.552;9.908;2022-08-16T09:59:58;8.93;;;8.07;;
13683;SDS011;6914;53.552;9.908;2022-08-16T10:02:26;9.07;;;8.37;;
13683;SDS011;6914;53.552;9.908;2022-08-16T10:04:53;8.10;;;7.40;;
13683;SDS011;6914;53.552;9.908;2022-08-16T10:07:22;8.37;;;6.60;;
13683;SDS011;6914;53.552;9.908;2022-08-16T10:09:49;7.90;;;7.37;;
13683;SDS011;6914;53.552;9.908;2022-08-16T10:12:16;8.23;;;7.50;;
13683;SDS011;6914;53.552;9.908;2022-08-16T10:15:01;11.23;;;7.53;;
13683;SDS011;6914;53.552;9.908;2022-08-16T10:17:29;11.37;;;8.50;;
13683;SDS011;6914;53.552;9.908;2022-08-16T10:19:56;9.57;;;8.07;;
13683;SDS011;6914;53.552;9.908;2022-08-16T10:22:23;9.73;;;8.83;;
13683;SDS011;6914;53.552;9.908;2022-08-16T10:24:51;7.90;;;6.70;;
13683;SDS011;6914;53.552;9.908;2022-08-16T10:27:18;7.70;;;6.97;;
13683;SDS011;6914;53.552;9.908;2022-08-16T10:29:45;9.03;;;8.27;;
13683;SDS011;6914;53.552;9.908;2022-08-16T10:32:13;6.97;;;6.37;;
13683;SDS011;6914;53.552;9.908;2022-08-16T10:34:40;8.53;;;7.13;;
13683;SDS011;6914;53.552;9.908;2022-08-16T10:37:07;8.50;;;7.70;;
13683;SDS011;6914;53.552;9.908;2022-08-16T10:39:35;14.57;;;6.90;;
13683;SDS011;6914;53.552;9.908;2022-08-16T10:42:04;6.20;;;5.70;;
13683;SDS011;6914;53.552;9.908;2022-08-16T10:44:31;6.10;;;5.63;;
13683;SDS011;6914;53.552;9.908;2022-08-16T10:46:58;6.53;;;6.03;;
13683;SDS011;6914;53.552;9.908;2022-08-16T10:49:26;8.37;;;7.57;;
13683;SDS011;6914;53.552;9.908;2022-08-16T10:51:53;6.00;;;5.60;;
13683;SDS011;6914;53.552;9.908;2022-08-16T10:54:20;5.20;;;5.00;;
13683;SDS011;6914;53.552;9.908;2022-08-16T10:56:47;5.63;;;5.20;;
13683;SDS011;6914;53.552;9.908;2022-08-16T10:59:14;6.50;;;5.87;;
13683;SDS011;6914;53.552;9.908;2022-08-16T11:01:41;6.70;;;6.20;;
13683;SDS011;6914;53.552;9.908;2022-08-16T11:04:09;6.00;;;5.70;;
13683;SDS011;6914;53.552;9.908;2022-08-16T11:06:39;8.40;;;5.90;;
13683;SDS011;6914;53.552;9.908;2022-08-16T11:09:06;6.23;;;5.77;;
13683;SDS011;6914;53.552;9.908;2022-08-16T11:11:33;5.57;;;5.07;;
13683;SDS011;6914;53.552;9.908;2022-08-16T11:14:01;9.77;;;6.00;;
13683;SDS011;6914;53.552;9.908;2022-08-16T11:16:28;11.43;;;5.87;;
13683;SDS011;6914;53.552;9.908;2022-08-16T11:18:55;5.40;;;5.00;;
13683;SDS011;6914;53.552;9.908;2022-08-16T11:21:23;10.77;;;6.87;;
13683;SDS011;6914;53.552;9.908;2022-08-16T11:23:51;5.47;;;5.00;;
13683;SDS011;6914;53.552;9.908;2022-08-16T11:26:20;8.97;;;6.47;;
13683;SDS011;6914;53.552;9.908;2022-08-16T11:28:47;11.53;;;5.67;;
13683;SDS011;6914;53.552;9.908;2022-08-16T11:31:15;8.60;;;7.03;;
13683;SDS011;6914;53.552;9.908;2022-08-16T11:33:43;6.40;;;5.93;;
13683;SDS011;6914;53.552;9.908;2022-08-16T11:36:10;6.93;;;6.20;;
13683;SDS011;6914;53.552;9.908;2022-08-16T11:38:37;17.57;;;6.47;;
13683;SDS011;6914;53.552;9.908;2022-08-16T11:41:05;7.70;;;6.40;;
13683;SDS011;6914;53.552;9.908;2022-08-16T11:43:34;7.13;;;6.60;;
13683;SDS011;6914;53.552;9.908;2022-08-16T11:46:04;6.93;;;6.13;;
13683;SDS011;6914;53.552;9.908;2022-08-16T11:48:32;6.70;;;6.27;;
13683;SDS011;6914;53.552;9.908;2022-08-16T11:51:00;9.17;;;8.27;;
13683;SDS011;6914;53.552;9.908;2022-08-16T11:53:28;10.50;;;8.03;;
13683;SDS011;6914;53.552;9.908;2022-08-16T11:55:56;15.43;;;8.40;;
13683;SDS011;6914;53.552;9.908;2022-08-16T11:58:27;10.50;;;9.23;;
13683;SDS011;6914;53.552;9.908;2022-08-16T12:00:56;10.97;;;8.90;;
13683;SDS011;6914;53.552;9.908;2022-08-16T12:03:24;10.60;;;9.60;;
13683;SDS011;6914;53.552;9.908;2022-08-16T12:05:53;10.57;;;9.30;;
13683;SDS011;6914;53.552;9.908;2022-08-16T12:08:20;14.33;;;9.93;;
13683;SDS011;6914;53.552;9.908;2022-08-16T12:10:49;11.53;;;8.23;;
13683;SDS011;6914;53.552;9.908;2022-08-16T12:13:16;14.67;;;10.03;;
13683;SDS011;6914;53.552;9.908;2022-08-16T12:15:44;10.77;;;9.73;;
13683;SDS011;6914;53.552;9.908;2022-08-16T12:18:12;11.83;;;8.50;;
13683;SDS011;6914;53.552;9.908;2022-08-16T12:20:41;14.27;;;9.10;;
13683;SDS011;6914;53.552;9.908;2022-08-16T12:23:09;9.77;;;7.70;;
13683;SDS011;6914;53.552;9.908;2022-08-16T12:25:37;10.77;;;9.67;;
13683;SDS011;6914;53.552;9.908;2022-08-16T12:28:06;23.50;;;7.80;;
13683;SDS011;6914;53.552;9.908;2022-08-16T12:30:36;8.80;;;8.00;;
13683;SDS011;6914;53.552;9.908;2022-08-16T12:33:07;9.63;;;8.83;;
13683;SDS011;6914;53.552;9.908;2022-08-16T12:35:36;7.90;;;7.27;;
13683;SDS011;6914;53.552;9.908;2022-08-16T12:38:05;7.87;;;7.20;;
13683;SDS011;6914;53.552;9.908;2022-08-16T12:40:34;9.60;;;7.33;;
13683;SDS011;6914;53.552;9.908;2022-08-16T12:43:03;6.57;;;6.37;;
13683;SDS011;6914;53.552;9.908;2022-08-16T12:45:34;7.00;;;6.40;;
13683;SDS011;6914;53.552;9.908;2022-08-16T12:48:02;12.77;;;6.97;;
13683;SDS011;6914;53.552;9.908;2022-08-16T12:50:52;12.80;;;5.80;;
13683;SDS011;6914;53.552;9.908;2022-08-16T12:53:20;8.43;;;7.60;;
13683;SDS011;6914;53.552;9.908;2022-08-16T12:55:48;14.40;;;7.37;;
13683;SDS011;6914;53.552;9.908;2022-08-16T12:58:16;6.13;;;5.70;;
13683;SDS011;6914;53.552;9.908;2022-08-16T13:00:44;3.60;;;3.50;;
13683;SDS011;6914;53.552;9.908;2022-08-16T13:03:12;4.27;;;3.97;;
13683;SDS011;6914;53.552;9.908;2022-08-16T13:05:40;3.47;;;3.27;;
13683;SDS011;6914;53.552;9.908;2022-08-16T13:08:09;9.80;;;4.47;;
13683;SDS011;6914;53.552;9.908;2022-08-16T13:10:39;14.63;;;4.37;;
13683;SDS011;6914;53.552;9.908;2022-08-16T13:13:08;4.13;;;3.80;;
13683;SDS011;6914;53.552;9.908;2022-08-16T13:15:36;5.77;;;5.27;;
13683;SDS011;6914;53.552;9.908;2022-08-16T13:18:04;12.47;;;6.50;;
13683;SDS011;6914;53.552;9.908;2022-08-16T13:20:31;6.60;;;5.10;;
13683;SDS011;6914;53.552;9.908;2022-08-16T13:22:59;6.40;;;5.80;;
13683;SDS011;6914;53.552;9.908;2022-08-16T13:25:30;6.97;;;6.47;;
13683;SDS011;6914;53.552;9.908;2022-08-16T13:27:59;6.60;;;6.10;;
13683;SDS011;6914;53.552;9.908;2022-08-16T13:30:27;7.30;;;6.60;;
13683;SDS011;6914;53.552;9.908;2022-08-16T13:32:57;5.83;;;5.50;;
13683;SDS011;6914;53.552;9.908;2022-08-16T13:35:24;6.70;;;5.90;;
13683;SDS011;6914;53.552;9.908;2022-08-16T13:37:51;7.27;;;5.20;;
13683;SDS011;6914;53.552;9.908;2022-08-16T13:40:18;6.03;;;5.60;;
13683;SDS011;6914;53.552;9.908;2022-08-16T13:42:47;8.80;;;6.20;;
13683;SDS011;6914;53.552;9.908;2022-08-16T13:45:15;8.10;;;6.70;;
13683;SDS011;6914;53.552;9.908;2022-08-16T13:47:42;7.60;;;6.90;;
13683;SDS011;6914;53.552;9.908;2022-08-16T13:50:10;5.80;;;5.30;;
13683;SDS011;6914;53.552;9.908;2022-08-16T13:52:40;7.43;;;6.77;;
13683;SDS011;6914;53.552;9.908;2022-08-16T13:55:10;12.20;;;6.23;;
13683;SDS011;6914;53.552;9.908;2022-08-16T13:57:38;8.83;;;5.27;;
13683;SDS011;6914;53.552;9.908;2022-08-16T14:00:08;10.23;;;5.93;;
13683;SDS011;6914;53.552;9.908;2022-08-16T14:02:35;8.90;;;5.37;;
13683;SDS011;6914;53.552;9.908;2022-08-16T14:05:03;5.30;;;4.90;;
13683;SDS011;6914;53.552;9.908;2022-08-16T14:07:31;5.83;;;5.30;;
13683;SDS011;6914;53.552;9.908;2022-08-16T14:09:58;8.67;;;5.13;;
13683;SDS011;6914;53.552;9.908;2022-08-16T14:12:27;5.87;;;5.30;;
13683;SDS011;6914;53.552;9.908;2022-08-16T14:14:56;6.30;;;5.90;;
13683;SDS011;6914;53.552;9.908;2022-08-16T14:17:26;9.00;;;5.00;;
13683;SDS011;6914;53.552;9.908;2022-08-16T14:19:54;6.60;;;6.10;;
13683;SDS011;6914;53.552;9.908;2022-08-16T14:22:22;7.47;;;5.80;;
13683;SDS011;6914;53.552;9.908;2022-08-16T14:24:54;13.87;;;5.00;;
13683;SDS011;6914;53.552;9.908;2022-08-16T14:27:24;5.83;;;5.17;;
13683;SDS011;6914;53.552;9.908;2022-08-16T14:29:53;6.70;;;5.73;;
13683;SDS011;6914;53.552;9.908;2022-08-16T14:32:23;5.70;;;5.30;;
13683;SDS011;6914;53.552;9.908;2022-08-16T14:34:53;6.13;;;5.67;;
13683;SDS011;6914;53.552;9.908;2022-08-16T14:37:23;13.17;;;7.40;;
13683;SDS011;6914;53.552;9.908;2022-08-16T14:39:50;6.00;;;5.47;;
13683;SDS011;6914;53.552;9.908;2022-08-16T14:42:18;6.10;;;5.70;;
13683;SDS011;6914;53.552;9.908;2022-08-16T14:44:51;5.97;;;5.50;;
13683;SDS011;6914;53.552;9.908;2022-08-16T14:47:18;6.63;;;5.67;;
13683;SDS011;6914;53.552;9.908;2022-08-16T14:49:47;6.13;;;5.70;;
13683;SDS011;6914;53.552;9.908;2022-08-16T14:52:17;11.90;;;5.60;;
13683;SDS011;6914;53.552;9.908;2022-08-16T14:54:46;6.43;;;5.83;;
13683;SDS011;6914;53.552;9.908;2022-08-16T14:57:15;6.30;;;5.87;;